createdAt,value
2017-11-12T00:00:19.350Z,73.90
2017-11-12T00:02:46.909Z,74.10
2017-11-12T00:05:15.183Z,74.40
2017-11-12T00:07:42.702Z,74.40
2017-11-12T00:10:10.205Z,74.00
2017-11-12T00:12:38.047Z,74.10
2017-11-12T00:15:05.558Z,74.20
2017-11-12T00:17:33.938Z,74.40
2017-11-12T00:20:01.446Z,74.30
2017-11-12T00:22:29.721Z,74.60
2017-11-12T00:24:57.230Z,74.90
2017-11-12T00:27:25.530Z,74.50
2017-11-12T00:29:53.783Z,74.50
2017-11-12T00:32:21.286Z,74.30
2017-11-12T00:34:48.825Z,74.50
2017-11-12T00:37:16.373Z,74.60
2017-11-12T00:39:44.652Z,74.80
2017-11-12T00:42:12.934Z,74.60
2017-11-12T00:44:41.317Z,74.70
2017-11-12T00:47:08.795Z,74.60
2017-11-12T00:49:36.341Z,74.50
2017-11-12T00:52:04.005Z,74.70
2017-11-12T00:54:31.662Z,74.80
2017-11-12T00:56:59.313Z,75.00
2017-11-12T00:59:26.804Z,74.70
2017-11-12T01:01:54.333Z,74.70
2017-11-12T01:04:21.889Z,74.70
2017-11-12T01:06:50.147Z,74.10
2017-11-12T01:09:17.683Z,74.10
2017-11-12T01:11:46.015Z,74.70
2017-11-12T01:14:13.533Z,73.90
2017-11-12T01:16:41.148Z,74.20
2017-11-12T01:19:08.638Z,74.40
2017-11-12T01:21:36.146Z,74.10
2017-11-12T01:24:03.624Z,74.20
2017-11-12T01:26:31.119Z,74.10
2017-11-12T01:28:58.733Z,73.80
2017-11-12T01:31:26.238Z,74.00
2017-11-12T01:33:53.749Z,74.10
2017-11-12T01:36:21.246Z,74.20
2017-11-12T01:38:48.765Z,74.30
2017-11-12T01:41:16.410Z,74.70
2017-11-12T01:43:44.678Z,74.30
2017-11-12T01:46:12.155Z,74.20
2017-11-12T01:48:40.425Z,74.90
2017-11-12T01:51:08.686Z,74.70
2017-11-12T01:53:36.173Z,74.60
2017-11-12T01:56:03.674Z,74.90
2017-11-12T01:58:31.384Z,75.00
2017-11-12T02:00:59.651Z,74.60
2017-11-12T02:03:27.909Z,74.60
2017-11-12T02:05:55.401Z,74.60
2017-11-12T02:08:23.857Z,74.60
2017-11-12T02:10:51.370Z,74.50
2017-11-12T02:13:18.888Z,74.60
2017-11-12T02:15:46.571Z,75.30
2017-11-12T02:18:14.066Z,74.60
2017-11-12T02:20:41.572Z,74.70
2017-11-12T02:23:09.074Z,74.90
2017-11-12T02:25:36.691Z,74.90
2017-11-12T02:28:04.179Z,75.10
2017-11-12T02:30:31.686Z,75.10
2017-11-12T02:32:59.962Z,75.40
2017-11-12T02:35:27.459Z,75.40
2017-11-12T02:37:55.314Z,75.60
2017-11-12T02:40:22.901Z,75.30
2017-11-12T02:42:50.664Z,75.40
2017-11-12T02:45:18.293Z,75.60
2017-11-12T02:47:45.796Z,76.10
2017-11-12T02:50:13.304Z,76.10
2017-11-12T02:52:41.567Z,75.60
2017-11-12T02:55:09.080Z,75.60
2017-11-12T02:57:36.648Z,75.60
2017-11-12T03:00:04.142Z,75.10
2017-11-12T03:02:31.648Z,74.90
2017-11-12T03:04:59.181Z,75.00
2017-11-12T03:07:26.682Z,74.90
2017-11-12T03:09:54.209Z,74.90
2017-11-12T03:12:21.736Z,75.00
2017-11-12T03:14:49.332Z,75.50
2017-11-12T03:17:16.818Z,75.50
2017-11-12T03:19:44.383Z,75.60
2017-11-12T03:22:11.881Z,76.00
2017-11-12T03:24:39.550Z,76.40
2017-11-12T03:27:07.060Z,76.60
2017-11-12T03:29:34.586Z,76.60
2017-11-12T03:32:02.095Z,76.50
2017-11-12T03:34:29.803Z,76.50
2017-11-12T03:36:57.345Z,76.50
2017-11-12T03:39:25.727Z,76.60
2017-11-12T03:41:53.236Z,76.60
2017-11-12T03:44:20.838Z,76.80
2017-11-12T03:46:49.421Z,77.10
2017-11-12T03:49:17.123Z,77.00
2017-11-12T03:51:46.097Z,77.00
2017-11-12T03:54:14.373Z,76.90
2017-11-12T03:56:42.650Z,76.90
2017-11-12T03:59:10.324Z,76.90
2017-11-12T04:01:38.613Z,76.60
2017-11-12T04:04:06.123Z,76.50
2017-11-12T04:06:33.684Z,76.50
2017-11-12T04:09:01.184Z,76.20
2017-11-12T04:11:28.679Z,76.30
2017-11-12T04:13:56.399Z,76.60
2017-11-12T04:16:24.060Z,76.80
2017-11-12T04:18:51.722Z,77.00
2017-11-12T04:21:19.221Z,77.10
2017-11-12T04:23:46.724Z,77.20
2017-11-12T04:26:14.997Z,77.80
2017-11-12T04:28:43.418Z,77.40
2017-11-12T04:31:10.923Z,77.30
2017-11-12T04:33:38.461Z,77.20
2017-11-12T04:36:05.964Z,77.40
2017-11-12T04:38:34.225Z,77.10
2017-11-12T04:41:01.811Z,77.10
2017-11-12T04:43:30.082Z,76.90
2017-11-12T04:45:57.589Z,76.90
2017-11-12T04:48:25.098Z,76.80
2017-11-12T04:50:52.970Z,76.50
2017-11-12T04:53:20.483Z,76.30
2017-11-12T04:55:47.983Z,76.60
2017-11-12T04:58:16.469Z,76.30
2017-11-12T05:00:44.721Z,76.30
2017-11-12T05:03:12.332Z,76.30
2017-11-12T05:05:39.835Z,76.40
2017-11-12T05:08:07.335Z,76.50
2017-11-12T05:10:34.832Z,76.50
2017-11-12T05:13:02.334Z,76.70
2017-11-12T05:15:30.752Z,76.50
2017-11-12T05:17:58.245Z,76.50
2017-11-12T05:20:25.726Z,76.60
2017-11-12T05:22:53.402Z,76.40
2017-11-12T05:25:20.895Z,76.20
2017-11-12T05:27:48.485Z,76.10
2017-11-12T05:30:16.002Z,76.10
2017-11-12T05:32:43.533Z,76.40
2017-11-12T05:35:11.082Z,76.10
2017-11-12T05:37:39.353Z,76.30
2017-11-12T05:40:06.871Z,75.90
2017-11-12T05:42:34.411Z,76.20
2017-11-12T05:45:01.972Z,75.80
2017-11-12T05:47:29.445Z,76.00
2017-11-12T05:49:56.946Z,76.30
2017-11-12T05:52:24.553Z,75.70
2017-11-12T05:54:52.070Z,76.00
2017-11-12T05:57:19.737Z,76.00
2017-11-12T05:59:47.985Z,76.10
2017-11-12T06:02:15.510Z,76.60
2017-11-12T06:04:43.073Z,75.90
2017-11-12T06:07:10.929Z,75.70
2017-11-12T06:09:38.409Z,75.50
2017-11-12T06:12:05.919Z,75.50
2017-11-12T06:14:34.225Z,75.60
2017-11-12T06:17:01.786Z,75.60
2017-11-12T06:19:29.298Z,75.60
2017-11-12T06:21:56.805Z,75.30
2017-11-12T06:24:24.332Z,75.30
2017-11-12T06:26:51.835Z,75.30
2017-11-12T06:29:19.346Z,75.40
2017-11-12T06:31:47.627Z,75.70
2017-11-12T06:34:15.891Z,76.50
2017-11-12T06:36:43.390Z,75.80
2017-11-12T06:39:10.959Z,76.30
2017-11-12T06:41:38.491Z,76.00
2017-11-12T06:44:06.758Z,76.40
2017-11-12T06:46:35.015Z,76.70
2017-11-12T06:49:02.501Z,76.60
2017-11-12T06:51:30.788Z,77.30
2017-11-12T06:53:58.281Z,77.20
2017-11-12T06:56:25.957Z,77.40
2017-11-12T06:58:53.448Z,77.60
2017-11-12T07:01:21.851Z,77.40
2017-11-12T07:03:49.513Z,77.40
2017-11-12T07:06:17.179Z,77.40
2017-11-12T07:08:44.806Z,77.30
2017-11-12T07:11:12.303Z,77.00
2017-11-12T07:13:39.826Z,77.10
2017-11-12T07:16:07.314Z,77.00
2017-11-12T07:18:34.869Z,76.40
2017-11-12T07:21:02.741Z,76.30
2017-11-12T07:23:30.283Z,76.50
2017-11-12T07:25:57.801Z,76.20
2017-11-12T07:28:25.318Z,76.10
2017-11-12T07:30:52.793Z,76.40
2017-11-12T07:33:20.326Z,76.10
2017-11-12T07:35:47.884Z,75.80
2017-11-12T07:38:15.371Z,75.50
2017-11-12T07:40:42.862Z,75.40
2017-11-12T07:43:10.370Z,75.50
2017-11-12T07:45:37.915Z,75.30
2017-11-12T07:48:05.404Z,75.30
2017-11-12T07:50:32.935Z,75.40
2017-11-12T07:53:01.199Z,74.70
2017-11-12T07:55:28.708Z,74.70
2017-11-12T07:57:56.279Z,74.30
2017-11-12T08:00:23.750Z,74.50
2017-11-12T08:02:51.255Z,74.30
2017-11-12T08:05:19.501Z,73.50
2017-11-12T08:07:46.997Z,73.40
2017-11-12T08:10:15.273Z,72.80
2017-11-12T08:12:43.543Z,73.10
2017-11-12T08:15:11.043Z,73.10
2017-11-12T08:17:38.536Z,72.90
2017-11-12T08:20:06.024Z,73.00
2017-11-12T08:22:33.688Z,72.80
2017-11-12T08:25:01.243Z,72.70
2017-11-12T08:27:29.497Z,72.30
2017-11-12T08:29:56.982Z,72.30
2017-11-12T08:32:24.458Z,72.10
2017-11-12T08:34:51.965Z,72.10
2017-11-12T08:37:20.411Z,71.50
2017-11-12T08:39:47.950Z,71.50
2017-11-12T08:42:15.453Z,71.10
2017-11-12T08:44:42.951Z,71.00
2017-11-12T08:47:10.446Z,71.00
2017-11-12T08:49:38.069Z,71.10
2017-11-12T08:52:05.566Z,70.90
2017-11-12T08:54:33.066Z,70.20
2017-11-12T08:57:00.568Z,69.80
2017-11-12T08:59:28.070Z,69.70
2017-11-12T09:01:55.559Z,69.60
2017-11-12T09:04:23.058Z,69.70
2017-11-12T09:06:50.546Z,69.80
2017-11-12T09:09:18.050Z,69.60
2017-11-12T09:11:45.575Z,69.70
2017-11-12T09:14:13.085Z,69.50
2017-11-12T09:16:40.573Z,69.60
2017-11-12T09:19:08.078Z,69.20
2017-11-12T09:21:35.644Z,68.70
2017-11-12T09:24:03.609Z,68.60
2017-11-12T09:26:31.110Z,68.60
2017-11-12T09:28:59.303Z,68.30
2017-11-12T09:31:27.005Z,68.40
2017-11-12T09:33:54.490Z,68.30
2017-11-12T09:36:21.979Z,68.50
2017-11-12T09:38:49.456Z,68.70
2017-11-12T09:41:16.969Z,68.70
2017-11-12T09:43:44.756Z,68.50
2017-11-12T09:46:12.251Z,68.40
2017-11-12T09:48:40.530Z,67.80
2017-11-12T09:51:08.910Z,68.00
2017-11-12T09:53:36.402Z,68.00
2017-11-12T09:56:03.919Z,67.30
2017-11-12T09:58:32.210Z,67.20
2017-11-12T10:00:59.718Z,67.20
2017-11-12T10:03:27.210Z,67.00
2017-11-12T10:05:55.477Z,66.00
2017-11-12T10:08:23.045Z,66.00
2017-11-12T10:10:50.718Z,65.90
2017-11-12T10:13:18.218Z,65.70
2017-11-12T10:15:45.750Z,65.60
2017-11-12T10:18:13.397Z,65.30
2017-11-12T10:20:40.896Z,65.30
2017-11-12T10:23:08.378Z,65.30
2017-11-12T10:25:36.009Z,65.00
2017-11-12T10:28:03.512Z,64.70
2017-11-12T10:30:31.230Z,64.90
2017-11-12T10:32:58.727Z,64.60
2017-11-12T10:35:27.864Z,63.80
2017-11-12T10:37:55.574Z,63.80
2017-11-12T10:40:23.193Z,63.50
2017-11-12T10:42:50.878Z,63.50
2017-11-12T10:45:18.541Z,62.90
2017-11-12T10:47:46.134Z,63.50
2017-11-12T10:50:15.230Z,64.30
2017-11-12T10:52:42.819Z,64.30
2017-11-12T10:55:11.111Z,63.50
2017-11-12T10:57:38.610Z,63.50
2017-11-12T11:00:06.107Z,63.40
2017-11-12T11:02:33.794Z,63.50
2017-11-12T11:05:01.434Z,63.50
2017-11-12T11:07:29.711Z,63.50
2017-11-12T11:09:57.992Z,63.10
2017-11-12T11:12:25.485Z,63.10
2017-11-12T11:14:53.044Z,63.10
2017-11-12T11:17:20.612Z,62.80
2017-11-12T11:19:48.145Z,62.40
2017-11-12T11:22:15.633Z,62.20
2017-11-12T11:24:43.123Z,62.10
2017-11-12T11:27:10.721Z,61.70
2017-11-12T11:29:38.219Z,61.80
2017-11-12T11:32:05.829Z,62.20
2017-11-12T11:34:33.315Z,62.10
2017-11-12T11:37:00.850Z,62.90
2017-11-12T11:39:29.222Z,63.10
2017-11-12T11:41:56.719Z,63.00
2017-11-12T11:44:24.194Z,63.30
2017-11-12T11:46:51.808Z,63.00
2017-11-12T11:49:20.075Z,62.50
2017-11-12T11:51:47.600Z,62.50
2017-11-12T11:54:15.081Z,62.30
2017-11-12T11:56:42.565Z,62.80
2017-11-12T11:59:10.072Z,62.10
2017-11-12T12:01:37.679Z,61.70
2017-11-12T12:04:05.350Z,61.30
2017-11-12T12:06:32.878Z,61.50
2017-11-12T12:09:00.384Z,61.40
2017-11-12T12:11:27.897Z,61.60
2017-11-12T12:13:55.417Z,61.50
2017-11-12T12:16:23.065Z,61.00
2017-11-12T12:18:50.577Z,61.30
2017-11-12T12:21:18.078Z,61.50
2017-11-12T12:23:45.598Z,62.30
2017-11-12T12:26:13.080Z,61.60
2017-11-12T12:28:40.695Z,61.70
2017-11-12T12:31:08.286Z,61.80
2017-11-12T12:33:35.876Z,61.80
2017-11-12T12:36:03.818Z,61.90
2017-11-12T12:38:31.318Z,62.00
2017-11-12T12:40:58.834Z,62.60
2017-11-12T12:43:26.320Z,61.80
2017-11-12T12:45:53.817Z,61.60
2017-11-12T12:48:21.407Z,61.70
2017-11-12T12:50:48.926Z,62.30
2017-11-12T12:53:16.434Z,61.40
2017-11-12T12:55:43.935Z,61.30
2017-11-12T12:58:11.413Z,61.00
2017-11-12T13:00:39.224Z,61.20
2017-11-12T13:03:06.775Z,61.20
2017-11-12T13:05:35.151Z,61.10
2017-11-12T13:08:02.665Z,61.00
2017-11-12T13:10:30.274Z,61.60
2017-11-12T13:12:58.565Z,62.60
2017-11-12T13:15:26.052Z,62.60
2017-11-12T13:17:53.525Z,62.90
2017-11-12T13:20:21.027Z,63.10
2017-11-12T13:22:48.534Z,63.50
2017-11-12T13:25:16.138Z,63.20
2017-11-12T13:27:43.804Z,63.30
2017-11-12T13:30:11.492Z,63.00
2017-11-12T13:32:38.989Z,63.20
2017-11-12T13:35:06.487Z,63.20
2017-11-12T13:37:34.745Z,62.60
2017-11-12T13:40:02.218Z,62.60
2017-11-12T13:42:30.498Z,61.70
2017-11-12T13:44:58.796Z,61.50
2017-11-12T13:47:26.280Z,61.50
2017-11-12T13:49:53.789Z,61.60
2017-11-12T13:52:21.447Z,62.30
2017-11-12T13:54:48.947Z,63.20
2017-11-12T13:57:16.459Z,63.50
2017-11-12T13:59:44.720Z,63.70
2017-11-12T14:02:12.211Z,63.70
2017-11-12T14:04:40.475Z,64.30
2017-11-12T14:07:08.886Z,64.20
2017-11-12T14:09:36.533Z,64.10
2017-11-12T14:12:04.170Z,64.30
2017-11-12T14:14:31.677Z,64.40
2017-11-12T14:16:59.164Z,64.60
2017-11-12T14:21:59.372Z,64.80
2017-11-12T14:24:26.930Z,65.10
2017-11-12T14:26:54.405Z,65.20
2017-11-12T14:29:21.901Z,65.30
2017-11-12T14:31:49.410Z,65.60
2017-11-12T14:34:16.894Z,65.40
2017-11-12T14:36:44.969Z,65.90
2017-11-12T14:39:12.512Z,65.80
2017-11-12T14:41:40.004Z,65.70
2017-11-12T14:44:07.534Z,65.70
2017-11-12T14:46:35.166Z,66.00
2017-11-12T14:49:02.678Z,66.40
2017-11-12T14:51:30.281Z,66.50
2017-11-12T14:53:57.796Z,66.50
2017-11-12T14:56:25.325Z,66.30
2017-11-12T14:58:53.045Z,66.30
2017-11-12T15:01:20.533Z,66.90
2017-11-12T15:03:49.262Z,66.80
2017-11-12T15:06:16.735Z,66.80
2017-11-12T15:08:44.301Z,67.00
2017-11-12T15:11:11.890Z,67.40
2017-11-12T15:13:39.569Z,67.80
2017-11-12T15:16:07.091Z,68.00
2017-11-12T15:18:34.582Z,68.30
2017-11-12T15:21:02.119Z,68.00
2017-11-12T15:23:29.633Z,67.90
2017-11-12T15:25:57.155Z,67.90
2017-11-12T15:28:24.669Z,67.40
2017-11-12T15:30:52.163Z,67.30
2017-11-12T15:33:19.732Z,67.40
2017-11-12T15:35:47.249Z,67.40
2017-11-12T15:38:14.822Z,67.40
2017-11-12T15:40:42.501Z,67.50
2017-11-12T15:43:10.359Z,67.50
2017-11-12T15:45:37.931Z,67.80
2017-11-12T15:48:05.425Z,68.00
2017-11-12T15:50:32.915Z,68.30
2017-11-12T15:53:00.434Z,68.90
2017-11-12T15:55:28.064Z,68.70
2017-11-12T15:57:55.726Z,68.80
2017-11-12T16:00:23.229Z,68.90
2017-11-12T16:02:50.765Z,69.50
2017-11-12T16:05:18.268Z,69.50
2017-11-12T16:07:45.863Z,70.10
2017-11-12T16:10:14.241Z,69.60
2017-11-12T16:12:42.042Z,69.50
2017-11-12T16:15:09.528Z,69.40
2017-11-12T16:17:37.011Z,69.50
2017-11-12T16:20:04.694Z,69.40
2017-11-12T16:22:32.186Z,69.40
2017-11-12T16:24:59.733Z,69.10
2017-11-12T16:27:27.268Z,69.30
2017-11-12T16:29:54.909Z,69.00
2017-11-12T16:32:22.590Z,68.90
2017-11-12T16:34:50.077Z,68.60
2017-11-12T16:37:17.565Z,69.00
2017-11-12T16:39:45.090Z,69.20
2017-11-12T16:42:12.563Z,68.80
2017-11-12T16:44:40.945Z,69.30
2017-11-12T16:47:08.456Z,69.30
2017-11-12T16:49:35.954Z,69.30
2017-11-12T16:52:03.446Z,69.50
2017-11-12T16:54:30.978Z,69.50
2017-11-12T16:56:58.497Z,69.70
2017-11-12T16:59:26.744Z,70.10
2017-11-12T17:01:54.446Z,70.70
2017-11-12T17:04:22.015Z,70.10
2017-11-12T17:06:49.588Z,70.00
2017-11-12T17:09:17.753Z,70.10
2017-11-12T17:11:46.081Z,70.40
2017-11-12T17:14:13.559Z,70.40
2017-11-12T17:16:41.848Z,70.50
2017-11-12T17:19:09.361Z,70.40
2017-11-12T17:21:36.854Z,70.50
2017-11-12T17:24:05.097Z,70.50
2017-11-12T17:26:32.706Z,70.50
2017-11-12T17:29:00.182Z,70.50
2017-11-12T17:31:27.737Z,70.70
2017-11-12T17:33:55.230Z,70.90
2017-11-12T17:36:22.935Z,71.20
2017-11-12T17:38:51.319Z,70.70
2017-11-12T17:41:18.884Z,70.70
2017-11-12T17:43:46.472Z,70.60
2017-11-12T17:46:13.970Z,70.80
2017-11-12T17:48:41.563Z,70.70
2017-11-12T17:51:09.140Z,70.70
2017-11-12T17:53:36.643Z,70.70
2017-11-12T17:56:04.124Z,70.80
2017-11-12T17:58:32.501Z,71.20
2017-11-12T18:00:59.976Z,71.20
2017-11-12T18:03:27.491Z,71.20
2017-11-12T18:05:55.852Z,71.20
2017-11-12T18:08:23.476Z,71.20
2017-11-12T18:10:50.968Z,71.20
2017-11-12T18:13:18.572Z,71.20
2017-11-12T18:15:46.120Z,71.10
2017-11-12T18:18:13.632Z,71.20
2017-11-12T18:20:41.309Z,71.40
2017-11-12T18:23:08.794Z,71.20
2017-11-12T18:25:36.300Z,71.10
2017-11-12T18:28:03.805Z,71.00
2017-11-12T18:30:31.341Z,70.90
2017-11-12T18:32:58.853Z,70.90
2017-11-12T18:35:27.154Z,71.30
2017-11-12T18:37:54.705Z,71.30
2017-11-12T18:40:22.247Z,71.30
2017-11-12T18:42:50.496Z,71.10
2017-11-12T18:45:18.016Z,71.10
2017-11-12T18:47:45.782Z,70.80
2017-11-12T18:50:13.307Z,70.70
2017-11-12T18:52:40.795Z,71.00
2017-11-12T18:55:28.016Z,71.70
2017-11-12T18:58:05.387Z,71.30
2017-11-12T19:00:38.678Z,71.30
2017-11-12T19:06:12.642Z,71.40
2017-11-12T19:08:40.685Z,71.40
2017-11-12T19:11:08.976Z,70.70
2017-11-12T19:13:36.470Z,71.00
2017-11-12T19:16:04.011Z,70.80
2017-11-12T19:18:35.089Z,71.20
2017-11-12T19:21:04.522Z,71.20
2017-11-12T19:23:34.185Z,72.00
2017-11-12T19:29:09.241Z,72.00
2017-11-12T19:31:36.734Z,72.90
2017-11-12T19:34:05.301Z,72.70
2017-11-12T19:36:32.821Z,72.50
2017-11-12T19:39:00.383Z,72.80
2017-11-12T19:41:27.884Z,72.70
2017-11-12T19:43:55.502Z,72.80
2017-11-12T19:49:14.411Z,72.90
2017-11-12T19:51:41.925Z,73.20
2017-11-12T19:54:09.424Z,73.00
2017-11-12T19:56:37.061Z,72.70
2017-11-12T19:59:04.615Z,72.80
2017-11-12T20:01:32.826Z,73.70
2017-11-12T20:04:00.364Z,73.10
2017-11-12T20:06:27.864Z,73.10
2017-11-12T20:08:55.556Z,72.90
2017-11-12T20:11:23.815Z,73.30
2017-11-12T20:13:52.138Z,72.80
2017-11-12T20:16:20.958Z,72.80
2017-11-12T20:18:48.510Z,72.40
2017-11-12T20:21:17.864Z,72.10
2017-11-12T20:23:45.366Z,72.10
2017-11-12T20:26:12.939Z,72.50
2017-11-12T20:28:40.641Z,72.60
2017-11-12T20:31:08.934Z,72.70
2017-11-12T20:33:36.552Z,72.50
2017-11-12T20:36:04.335Z,72.10
2017-11-12T20:38:31.826Z,72.40
2017-11-12T20:40:59.405Z,72.30
2017-11-12T20:43:27.051Z,72.30
2017-11-12T20:45:56.277Z,72.30
2017-11-12T20:48:23.757Z,72.20
2017-11-12T20:53:52.778Z,72.40
2017-11-12T20:56:20.332Z,72.70
2017-11-12T20:58:48.759Z,72.10
2017-11-12T21:01:16.257Z,72.10
2017-11-12T21:03:44.322Z,71.60
2017-11-12T21:06:18.238Z,71.10
2017-11-12T21:08:45.751Z,70.40
2017-11-12T21:11:13.269Z,70.50
2017-11-12T21:13:41.540Z,70.30
2017-11-12T21:16:09.058Z,70.30
2017-11-12T21:18:36.529Z,70.10
2017-11-12T21:21:04.011Z,70.20
2017-11-12T21:23:32.271Z,70.90
2017-11-12T21:25:59.756Z,71.00
2017-11-12T21:28:34.387Z,70.70
2017-11-12T21:31:02.674Z,71.10
2017-11-12T21:33:32.819Z,71.60
2017-11-12T21:36:06.796Z,71.80
2017-11-12T21:38:35.447Z,71.60
2017-11-12T21:41:02.929Z,72.10
2017-11-12T21:43:31.865Z,72.80
2017-11-12T21:45:59.492Z,72.50
2017-11-12T21:48:26.992Z,72.50
2017-11-12T21:50:54.502Z,72.80
2017-11-12T21:53:22.031Z,72.70
2017-11-12T21:55:49.522Z,72.80
2017-11-12T21:58:17.024Z,72.60
2017-11-12T22:00:44.654Z,72.70
2017-11-12T22:03:12.206Z,73.50
2017-11-12T22:05:40.601Z,72.80
2017-11-12T22:08:08.086Z,72.80
2017-11-12T22:10:35.658Z,72.70
2017-11-12T22:13:04.210Z,72.90
2017-11-12T22:15:31.967Z,72.60
2017-11-12T22:18:00.431Z,73.70
2017-11-12T22:20:28.105Z,73.60
2017-11-12T22:22:55.732Z,73.90
2017-11-12T22:25:24.686Z,74.50
2017-11-12T22:27:52.639Z,74.70
2017-11-12T22:30:20.174Z,75.30
2017-11-12T22:32:47.649Z,75.50
2017-11-12T22:35:16.667Z,75.20
2017-11-12T22:37:44.758Z,75.20
2017-11-12T22:40:12.361Z,75.60
2017-11-12T22:42:40.609Z,75.00
2017-11-12T22:45:09.275Z,75.00
2017-11-12T22:47:36.885Z,75.00
2017-11-12T22:50:04.459Z,75.60
2017-11-12T22:52:32.714Z,75.90
2017-11-12T22:55:00.326Z,75.80
2017-11-12T22:57:27.818Z,75.90
2017-11-12T22:59:55.310Z,75.30
2017-11-12T23:02:23.617Z,75.80
2017-11-12T23:04:51.109Z,75.80
2017-11-12T23:07:18.980Z,76.50
2017-11-12T23:09:46.561Z,76.00
2017-11-12T23:12:14.074Z,76.00
2017-11-12T23:14:41.580Z,76.00
2017-11-12T23:17:09.871Z,76.20
2017-11-12T23:19:37.366Z,75.60
2017-11-12T23:22:04.868Z,75.40
2017-11-12T23:24:32.368Z,75.60
2017-11-12T23:27:00.010Z,75.70
2017-11-12T23:29:27.533Z,75.60
2017-11-12T23:31:55.030Z,75.90
2017-11-12T23:34:23.406Z,76.40
2017-11-12T23:36:50.938Z,76.20
2017-11-12T23:39:18.560Z,76.40
2017-11-12T23:41:46.111Z,76.00
2017-11-12T23:44:13.657Z,75.90
2017-11-12T23:46:41.151Z,76.30
2017-11-12T23:49:08.655Z,76.70
2017-11-12T23:51:36.332Z,77.20
2017-11-12T23:54:03.841Z,76.90
2017-11-12T23:56:31.339Z,76.70
2017-11-12T23:58:59.622Z,76.60
